Time;durP1;ratioP1;P1;durP2;ratioP2;P2;SDS_P1;SDS_P2;PMS_P1;PMS_P2;Temp;Humidity;BMP_temperature;BMP_pressure;BME280_temperature;BME280_humidity;BME280_pressure;Samples;Min_cycle;Max_cycle;Signal;HPM_P1;HPM_P2
2023/07/13 00:01:06;;;;;;;4.57;1.65;;;;;;;;;;5090787;28;20056;-59
2023/07/13 00:03:35;;;;;;;3.65;1.45;;;;;;;;;;5072448;28;20466;-60
2023/07/13 00:06:02;;;;;;;4.72;1.70;;;;;;;;;;5087587;28;20054;-61
2023/07/13 00:08:30;;;;;;;3.90;1.52;;;;;;;;;;5092104;28;20404;-59
2023/07/13 00:10:57;;;;;;;4.60;1.75;;;;;;;;;;5093077;28;20056;-59
2023/07/13 00:13:23;;;;;;;4.60;1.50;;;;;;;;;;5093965;28;20055;-59
2023/07/13 00:15:50;;;;;;;7.93;1.75;;;;;;;;;;5094256;28;20064;-58
2023/07/13 00:18:17;;;;;;;5.18;1.67;;;;;;;;;;5092483;28;20059;-59
2023/07/13 00:20:45;;;;;;;4.57;1.73;;;;;;;;;;5073025;28;20052;-59
2023/07/13 00:23:12;;;;;;;4.72;1.80;;;;;;;;;;5086901;28;20059;-58
2023/07/13 00:25:39;;;;;;;6.15;1.92;;;;;;;;;;5091051;28;20052;-59
2023/07/13 00:28:05;;;;;;;4.55;1.83;;;;;;;;;;5073289;28;20409;-59
2023/07/13 00:30:32;;;;;;;5.10;1.90;;;;;;;;;;5073798;28;20416;-59
2023/07/13 00:33:01;;;;;;;5.22;1.70;;;;;;;;;;5073856;28;20401;-58
2023/07/13 00:35:31;;;;;;;4.00;1.67;;;;;;;;;;5086146;28;20052;-59
2023/07/13 00:37:59;;;;;;;4.80;1.55;;;;;;;;;;5093830;28;20473;-59
2023/07/13 00:40:25;;;;;;;3.28;1.65;;;;;;;;;;5093995;28;20056;-59
2023/07/13 00:42:52;;;;;;;4.85;1.90;;;;;;;;;;5093377;28;20357;-59
2023/07/13 00:45:37;;;;;;;4.55;1.70;;;;;;;;;;5093720;28;20052;-59
2023/07/13 00:48:05;;;;;;;6.25;1.63;;;;;;;;;;5093862;28;20412;-59
2023/07/13 00:50:31;;;;;;;4.13;1.63;;;;;;;;;;5071576;28;20053;-59
2023/07/13 00:53:00;;;;;;;3.50;1.42;;;;;;;;;;5073079;28;20060;-59
2023/07/13 00:55:27;;;;;;;5.13;1.48;;;;;;;;;;5073023;28;20048;-59
2023/07/13 00:57:54;;;;;;;3.92;1.40;;;;;;;;;;5093601;28;20412;-59
2023/07/13 01:00:23;;;;;;;3.78;1.80;;;;;;;;;;5093573;28;20151;-59
2023/07/13 01:02:50;;;;;;;4.18;1.70;;;;;;;;;;5093567;28;20059;-59
2023/07/13 01:05:18;;;;;;;5.43;1.83;;;;;;;;;;5084085;28;20499;-59
2023/07/13 01:07:45;;;;;;;4.15;1.50;;;;;;;;;;5072646;28;20059;-59
2023/07/13 01:10:14;;;;;;;4.40;1.75;;;;;;;;;;5073005;28;20057;-59
2023/07/13 01:12:41;;;;;;;5.87;1.77;;;;;;;;;;5073217;28;20535;-59
2023/07/13 01:15:23;;;;;;;4.15;1.60;;;;;;;;;;5090306;28;20059;-59
2023/07/13 01:17:49;;;;;;;5.18;1.80;;;;;;;;;;5091494;28;20052;-59
2023/07/13 01:20:17;;;;;;;3.97;1.73;;;;;;;;;;5077874;28;20053;-59
2023/07/13 01:22:45;;;;;;;4.35;1.35;;;;;;;;;;5072998;28;20060;-59
2023/07/13 01:25:12;;;;;;;5.45;1.50;;;;;;;;;;5073019;28;20526;-59
2023/07/13 01:27:41;;;;;;;7.72;2.08;;;;;;;;;;5072575;28;20060;-59
2023/07/13 01:30:08;;;;;;;3.92;1.70;;;;;;;;;;5072598;28;20082;-59
2023/07/13 01:32:36;;;;;;;6.30;1.80;;;;;;;;;;5072881;28;20064;-58
2023/07/13 01:35:03;;;;;;;4.72;1.67;;;;;;;;;;5070603;28;20052;-58
2023/07/13 01:37:35;;;;;;;6.20;2.00;;;;;;;;;;5072456;28;20503;-59
2023/07/13 01:40:04;;;;;;;4.80;2.03;;;;;;;;;;5069553;28;20052;-59
2023/07/13 01:42:31;;;;;;;5.80;1.92;;;;;;;;;;5072523;28;20056;-58
2023/07/13 01:44:58;;;;;;;6.72;1.90;;;;;;;;;;5072243;28;20405;-58
2023/07/13 01:47:26;;;;;;;4.45;1.60;;;;;;;;;;5072158;28;20056;-59
2023/07/13 01:49:52;;;;;;;5.90;1.85;;;;;;;;;;5078858;28;20071;-59
2023/07/13 01:52:19;;;;;;;5.82;1.63;;;;;;;;;;5091995;28;20059;-58
2023/07/13 01:54:46;;;;;;;4.78;1.63;;;;;;;;;;5092303;28;20051;-59
2023/07/13 01:57:14;;;;;;;4.35;1.95;;;;;;;;;;5085377;28;20053;-59
2023/07/13 01:59:41;;;;;;;4.90;1.80;;;;;;;;;;5072469;28;20052;-59
2023/07/13 02:02:08;;;;;;;3.42;1.50;;;;;;;;;;5077683;28;20055;-59
2023/07/13 02:04:35;;;;;;;5.03;1.60;;;;;;;;;;5088489;28;20400;-59
2023/07/13 02:07:01;;;;;;;4.57;1.67;;;;;;;;;;5090972;28;20513;-59
2023/07/13 02:09:28;;;;;;;6.50;1.88;;;;;;;;;;5092201;28;20052;-60
2023/07/13 02:11:55;;;;;;;4.03;1.65;;;;;;;;;;5092143;28;20048;-59
2023/07/13 02:14:23;;;;;;;5.55;1.63;;;;;;;;;;5092531;28;20063;-59
2023/07/13 02:16:50;;;;;;;3.15;1.50;;;;;;;;;;5088767;28;20082;-60
2023/07/13 02:19:17;;;;;;;5.72;1.63;;;;;;;;;;5051921;28;20078;-60
2023/07/13 02:21:44;;;;;;;5.03;1.85;;;;;;;;;;5072374;28;20063;-58
2023/07/13 02:24:17;;;;;;;3.70;1.50;;;;;;;;;;5071955;28;20059;-58
2023/07/13 02:26:44;;;;;;;4.75;1.33;;;;;;;;;;5072750;28;20449;-60
2023/07/13 02:29:11;;;;;;;3.78;1.80;;;;;;;;;;5074367;28;20060;-59
2023/07/13 02:31:39;;;;;;;5.28;1.63;;;;;;;;;;5076301;28;20485;-60
2023/07/13 02:34:06;;;;;;;5.82;1.50;;;;;;;;;;5074095;28;20508;-60
2023/07/13 02:36:32;;;;;;;5.70;1.92;;;;;;;;;;5075841;28;20510;-60
2023/07/13 02:39:02;;;;;;;5.10;1.85;;;;;;;;;;5075688;28;20052;-60
2023/07/13 02:41:28;;;;;;;3.40;1.50;;;;;;;;;;5076288;28;20063;-60
2023/07/13 02:44:02;;;;;;;5.82;1.73;;;;;;;;;;5075604;28;20056;-60
2023/07/13 02:46:29;;;;;;;4.32;1.63;;;;;;;;;;5076315;28;20064;-60
2023/07/13 02:48:57;;;;;;;5.03;1.80;;;;;;;;;;5073630;28;20048;-60
2023/07/13 02:51:24;;;;;;;4.53;1.50;;;;;;;;;;5075781;28;20524;-60
2023/07/13 02:53:51;;;;;;;4.00;1.65;;;;;;;;;;5075383;28;20048;-60
2023/07/13 02:56:17;;;;;;;3.53;1.50;;;;;;;;;;5075849;28;20057;-60
2023/07/13 02:58:44;;;;;;;6.85;2.10;;;;;;;;;;5075481;28;20468;-60
2023/07/13 03:01:12;;;;;;;6.13;2.20;;;;;;;;;;5075869;28;20477;-60
2023/07/13 03:03:38;;;;;;;4.28;1.70;;;;;;;;;;5073654;28;20452;-62
2023/07/13 03:06:08;;;;;;;5.68;1.88;;;;;;;;;;5093763;28;20052;-60
2023/07/13 03:08:34;;;;;;;4.93;1.85;;;;;;;;;;5095582;28;20051;-60
2023/07/13 03:11:01;;;;;;;6.75;1.65;;;;;;;;;;5095877;28;20048;-60
2023/07/13 03:13:28;;;;;;;7.45;2.17;;;;;;;;;;5087931;28;20052;-60
2023/07/13 03:15:55;;;;;;;4.88;1.90;;;;;;;;;;5089259;28;20053;-60
2023/07/13 03:18:22;;;;;;;6.65;1.60;;;;;;;;;;5093516;28;20048;-60
2023/07/13 03:20:51;;;;;;;8.15;2.03;;;;;;;;;;5075414;28;20059;-60
2023/07/13 03:23:19;;;;;;;7.47;2.53;;;;;;;;;;5085349;28;20170;-60
2023/07/13 03:25:46;;;;;;;2.78;1.63;;;;;;;;;;5095429;28;20052;-60
2023/07/13 03:28:13;;;;;;;4.53;1.80;;;;;;;;;;5095387;28;20055;-60
2023/07/13 03:30:40;;;;;;;4.07;1.77;;;;;;;;;;5090934;28;20393;-60
2023/07/13 03:33:06;;;;;;;4.20;1.50;;;;;;;;;;5095164;28;20056;-60
2023/07/13 03:35:34;;;;;;;3.85;1.50;;;;;;;;;;5071601;28;20501;-60
2023/07/13 03:38:01;;;;;;;4.40;2.17;;;;;;;;;;5074848;28;20053;-59
2023/07/13 03:40:29;;;;;;;4.05;1.52;;;;;;;;;;5073931;28;20052;-60
2023/07/13 03:42:56;;;;;;;4.38;1.80;;;;;;;;;;5074929;28;20067;-60
2023/07/13 03:45:23;;;;;;;3.97;1.95;;;;;;;;;;5074654;28;20064;-60
2023/07/13 03:47:50;;;;;;;4.05;1.60;;;;;;;;;;5074238;28;20068;-60
2023/07/13 03:50:16;;;;;;;4.75;1.63;;;;;;;;;;5072406;28;20053;-60
2023/07/13 03:52:43;;;;;;;3.85;1.77;;;;;;;;;;5072025;28;20417;-60
2023/07/13 03:55:10;;;;;;;5.93;2.13;;;;;;;;;;5074150;28;20057;-60
2023/07/13 03:57:41;;;;;;;3.55;1.58;;;;;;;;;;5073860;28;20060;-59
2023/07/13 04:00:08;;;;;;;3.55;1.80;;;;;;;;;;5073897;28;20048;-60
2023/07/13 04:02:37;;;;;;;4.28;1.92;;;;;;;;;;5080562;28;20060;-60
2023/07/13 04:05:04;;;;;;;7.68;1.83;;;;;;;;;;5072491;28;20056;-59
2023/07/13 04:07:31;;;;;;;5.22;1.63;;;;;;;;;;5074020;28;20052;-59
2023/07/13 04:09:57;;;;;;;6.40;1.90;;;;;;;;;;5073933;28;20049;-60
2023/07/13 04:12:24;;;;;;;7.20;1.90;;;;;;;;;;5086634;28;20048;-60
2023/07/13 04:14:53;;;;;;;6.00;1.70;;;;;;;;;;5093960;28;20059;-60
2023/07/13 04:17:20;;;;;;;4.05;1.58;;;;;;;;;;5091045;28;20056;-60
2023/07/13 04:19:48;;;;;;;3.53;1.83;;;;;;;;;;5079032;28;20503;-59
2023/07/13 04:22:15;;;;;;;6.15;1.67;;;;;;;;;;5074277;28;20481;-60
2023/07/13 04:24:42;;;;;;;4.07;1.73;;;;;;;;;;5081127;28;20052;-60
2023/07/13 04:27:09;;;;;;;8.02;2.22;;;;;;;;;;5087777;28;20056;-60
2023/07/13 04:29:36;;;;;;;3.45;1.70;;;;;;;;;;5094000;28;20048;-60
2023/07/13 04:32:04;;;;;;;5.93;1.83;;;;;;;;;;5093470;28;20059;-60
2023/07/13 04:34:31;;;;;;;4.63;1.50;;;;;;;;;;5086730;28;20102;-60
2023/07/13 04:36:58;;;;;;;5.13;1.70;;;;;;;;;;5068232;28;20506;-60
2023/07/13 04:39:25;;;;;;;6.22;2.10;;;;;;;;;;5090299;28;20055;-60
2023/07/13 04:41:52;;;;;;;12.77;2.15;;;;;;;;;;5093907;28;20055;-60
2023/07/13 04:44:18;;;;;;;5.70;1.90;;;;;;;;;;5093702;28;20055;-60
2023/07/13 04:46:45;;;;;;;3.67;1.90;;;;;;;;;;5094061;28;20052;-60
2023/07/13 04:49:13;;;;;;;5.72;2.17;;;;;;;;;;5087089;28;20065;-60
2023/07/13 04:51:40;;;;;;;5.28;1.83;;;;;;;;;;5080367;28;20052;-59
2023/07/13 04:54:07;;;;;;;7.22;2.30;;;;;;;;;;5093592;28;20504;-60
2023/07/13 04:56:34;;;;;;;6.55;2.13;;;;;;;;;;5093915;28;20056;-60
2023/07/13 04:59:01;;;;;;;5.97;1.80;;;;;;;;;;5092896;28;20055;-60
2023/07/13 05:01:28;;;;;;;3.72;1.92;;;;;;;;;;5092253;28;20459;-60
2023/07/13 05:03:58;;;;;;;5.45;1.80;;;;;;;;;;5091040;28;20048;-61
2023/07/13 05:06:30;;;;;;;6.05;1.83;;;;;;;;;;5096548;28;20067;-60
2023/07/13 05:08:57;;;;;;;7.68;1.80;;;;;;;;;;5092907;28;20062;-60
2023/07/13 05:11:24;;;;;;;6.03;1.90;;;;;;;;;;5089285;28;20056;-60
2023/07/13 05:13:50;;;;;;;3.97;1.90;;;;;;;;;;5111537;28;20051;-60
2023/07/13 05:16:17;;;;;;;6.40;1.90;;;;;;;;;;5113780;28;20495;-60
2023/07/13 05:18:44;;;;;;;4.97;1.73;;;;;;;;;;5113271;28;20051;-60
2023/07/13 05:21:11;;;;;;;4.03;1.80;;;;;;;;;;5095821;28;20048;-60
2023/07/13 05:23:41;;;;;;;4.47;1.90;;;;;;;;;;5098236;28;20059;-61
2023/07/13 05:26:08;;;;;;;5.15;1.77;;;;;;;;;;5083536;28;20056;-60
2023/07/13 05:28:35;;;;;;;3.95;1.80;;;;;;;;;;5092922;28;20055;-60
2023/07/13 05:31:02;;;;;;;7.18;1.90;;;;;;;;;;5092986;28;20048;-60
2023/07/13 05:33:28;;;;;;;7.07;2.13;;;;;;;;;;5090155;28;20044;-60
2023/07/13 05:35:55;;;;;;;5.25;1.83;;;;;;;;;;5085897;28;20056;-59
2023/07/13 05:38:22;;;;;;;4.60;1.55;;;;;;;;;;5091019;28;20059;-59
2023/07/13 05:40:51;;;;;;;4.30;1.90;;;;;;;;;;5088070;28;20060;-61
2023/07/13 05:43:17;;;;;;;4.97;1.92;;;;;;;;;;5090077;28;20047;-59
2023/07/13 05:45:44;;;;;;;5.53;1.92;;;;;;;;;;5109134;28;20405;-60
2023/07/13 05:48:11;;;;;;;5.65;2.00;;;;;;;;;;5112912;28;20066;-60
2023/07/13 05:50:38;;;;;;;4.55;1.77;;;;;;;;;;5101237;28;20047;-60
2023/07/13 05:53:05;;;;;;;4.43;1.90;;;;;;;;;;5083445;28;20048;-60
2023/07/13 05:55:32;;;;;;;8.55;2.50;;;;;;;;;;5086062;28;20060;-59
2023/07/13 05:58:00;;;;;;;5.05;2.25;;;;;;;;;;5072844;28;20057;-59
2023/07/13 06:00:27;;;;;;;5.90;2.08;;;;;;;;;;5072368;28;20044;-60
2023/07/13 06:02:54;;;;;;;4.72;2.70;;;;;;;;;;5080237;28;20052;-60
2023/07/13 06:05:21;;;;;;;6.25;2.30;;;;;;;;;;5084752;28;20059;-60
2023/07/13 06:07:48;;;;;;;6.93;2.47;;;;;;;;;;5091267;28;20420;-60
2023/07/13 06:10:14;;;;;;;6.75;2.60;;;;;;;;;;5071574;28;20385;-60
2023/07/13 06:12:41;;;;;;;7.03;2.30;;;;;;;;;;5072348;28;20477;-60
2023/07/13 06:15:10;;;;;;;5.57;2.55;;;;;;;;;;5067222;28;20045;-60
2023/07/13 06:17:37;;;;;;;6.55;2.85;;;;;;;;;;5069839;28;20433;-60
2023/07/13 06:20:04;;;;;;;6.82;2.20;;;;;;;;;;5068117;28;20044;-61
2023/07/13 06:22:31;;;;;;;8.40;3.20;;;;;;;;;;5086676;28;20059;-60
2023/07/13 06:24:57;;;;;;;4.88;2.15;;;;;;;;;;5051804;28;20056;-60
2023/07/13 06:27:24;;;;;;;6.03;2.10;;;;;;;;;;5052192;28;20059;-60
2023/07/13 06:29:51;;;;;;;6.97;2.70;;;;;;;;;;5052008;28;20056;-60
2023/07/13 06:32:19;;;;;;;8.55;2.88;;;;;;;;;;5051995;28;20414;-60
2023/07/13 06:34:46;;;;;;;4.68;2.25;;;;;;;;;;5054395;28;20056;-60
2023/07/13 06:37:13;;;;;;;6.38;2.58;;;;;;;;;;5083762;28;20496;-60
2023/07/13 06:39:39;;;;;;;5.82;2.55;;;;;;;;;;5086258;28;20075;-59
2023/07/13 06:42:07;;;;;;;6.60;2.25;;;;;;;;;;5091898;28;20055;-60
2023/07/13 06:44:33;;;;;;;5.95;2.25;;;;;;;;;;5089812;28;20055;-60
2023/07/13 06:47:00;;;;;;;10.50;2.25;;;;;;;;;;5092271;28;20067;-60
2023/07/13 06:49:28;;;;;;;8.20;3.05;;;;;;;;;;5092185;28;20079;-60
2023/07/13 06:51:55;;;;;;;5.50;2.40;;;;;;;;;;5086854;28;20056;-60
2023/07/13 06:54:22;;;;;;;7.82;2.40;;;;;;;;;;5092058;28;20456;-60
2023/07/13 06:56:49;;;;;;;5.80;2.20;;;;;;;;;;5091785;28;20248;-60
2023/07/13 06:59:16;;;;;;;8.18;2.42;;;;;;;;;;5091501;28;20048;-61
2023/07/13 07:01:42;;;;;;;7.97;2.40;;;;;;;;;;5091884;28;20052;-60
2023/07/13 07:04:09;;;;;;;8.13;2.88;;;;;;;;;;5091482;28;20488;-60
2023/07/13 07:06:37;;;;;;;4.85;2.25;;;;;;;;;;5086990;28;20393;-60
2023/07/13 07:09:04;;;;;;;9.55;2.80;;;;;;;;;;5091533;28;20058;-60
2023/07/13 07:11:31;;;;;;;8.00;2.67;;;;;;;;;;5091660;28;20059;-61
2023/07/13 07:13:58;;;;;;;10.80;2.78;;;;;;;;;;5091702;28;20433;-60
2023/07/13 07:16:25;;;;;;;6.30;2.75;;;;;;;;;;5093682;28;20452;-60
2023/07/13 07:18:52;;;;;;;6.53;2.95;;;;;;;;;;5095338;28;20052;-60
2023/07/13 07:21:19;;;;;;;8.95;2.58;;;;;;;;;;5089946;28;20044;-60
2023/07/13 07:23:47;;;;;;;6.25;2.67;;;;;;;;;;5095049;28;20055;-60
2023/07/13 07:26:14;;;;;;;5.47;2.35;;;;;;;;;;5095056;28;20056;-60
2023/07/13 07:28:40;;;;;;;5.10;2.00;;;;;;;;;;5094929;28;20078;-60
2023/07/13 07:31:07;;;;;;;6.65;2.58;;;;;;;;;;5095083;28;20052;-60
2023/07/13 07:33:34;;;;;;;6.47;2.47;;;;;;;;;;5094982;28;20056;-60
2023/07/13 07:36:01;;;;;;;6.82;2.05;;;;;;;;;;5087736;28;20059;-60
2023/07/13 07:38:28;;;;;;;7.45;2.53;;;;;;;;;;5072377;28;20409;-60
2023/07/13 07:40:56;;;;;;;6.13;2.20;;;;;;;;;;5074922;28;20044;-60
2023/07/13 07:43:23;;;;;;;4.55;2.35;;;;;;;;;;5074765;28;20060;-61
2023/07/13 07:45:50;;;;;;;5.38;2.30;;;;;;;;;;5079709;28;20055;-60
2023/07/13 07:48:17;;;;;;;7.10;2.33;;;;;;;;;;5094727;28;20413;-61
2023/07/13 07:50:44;;;;;;;5.68;2.08;;;;;;;;;;5089617;28;20416;-60
2023/07/13 07:53:12;;;;;;;6.72;2.25;;;;;;;;;;5115013;28;20054;-61
2023/07/13 07:55:39;;;;;;;7.40;2.42;;;;;;;;;;5115183;28;20407;-61
2023/07/13 07:58:07;;;;;;;5.35;2.15;;;;;;;;;;5115206;28;20063;-61
2023/07/13 08:00:35;;;;;;;7.10;2.38;;;;;;;;;;5115219;28;20051;-61
2023/07/13 08:03:02;;;;;;;7.13;2.13;;;;;;;;;;5115246;28;20492;-61
2023/07/13 08:05:29;;;;;;;4.50;1.88;;;;;;;;;;5109545;28;20051;-61
2023/07/13 08:07:55;;;;;;;6.28;2.13;;;;;;;;;;5115183;28;20530;-61
2023/07/13 08:10:22;;;;;;;5.68;2.42;;;;;;;;;;5114884;28;20055;-61
2023/07/13 08:12:49;;;;;;;4.50;2.30;;;;;;;;;;5114980;28;20051;-61
2023/07/13 08:15:20;;;;;;;4.75;2.20;;;;;;;;;;5114949;28;20048;-60
2023/07/13 08:17:47;;;;;;;6.15;2.40;;;;;;;;;;5114204;28;20063;-61
2023/07/13 08:20:14;;;;;;;5.93;2.38;;;;;;;;;;5109219;28;20059;-61
2023/07/13 08:22:41;;;;;;;6.18;2.15;;;;;;;;;;5114578;28;20048;-61
2023/07/13 08:25:08;;;;;;;5.50;1.88;;;;;;;;;;5114512;28;20055;-61
2023/07/13 08:27:35;;;;;;;3.95;1.95;;;;;;;;;;5114426;28;20048;-61
2023/07/13 08:30:01;;;;;;;5.80;2.05;;;;;;;;;;5114619;28;20058;-61
2023/07/13 08:32:30;;;;;;;5.63;2.45;;;;;;;;;;5114179;28;20043;-61
2023/07/13 08:34:56;;;;;;;7.50;2.40;;;;;;;;;;5109522;28;20058;-61
2023/07/13 08:37:23;;;;;;;4.40;1.75;;;;;;;;;;5110261;28;20051;-61
2023/07/13 08:39:50;;;;;;;5.43;2.10;;;;;;;;;;5114309;28;20051;-61
2023/07/13 08:42:32;;;;;;;5.70;2.33;;;;;;;;;;5114359;28;20043;-61
2023/07/13 08:45:05;;;;;;;4.68;1.92;;;;;;;;;;5113914;28;20078;-61
2023/07/13 08:47:35;;;;;;;6.30;2.17;;;;;;;;;;5113032;28;20074;-61
2023/07/13 08:50:02;;;;;;;6.25;2.38;;;;;;;;;;5100402;28;20048;-61
2023/07/13 08:52:31;;;;;;;4.50;2.10;;;;;;;;;;5113537;28;20055;-61
2023/07/13 08:54:59;;;;;;;6.53;1.92;;;;;;;;;;5114032;28;20054;-62
2023/07/13 08:57:30;;;;;;;6.10;1.65;;;;;;;;;;5114081;28;20055;-62
2023/07/13 08:59:56;;;;;;;5.38;2.20;;;;;;;;;;5114006;28;20074;-61
2023/07/13 09:02:26;;;;;;;5.03;1.90;;;;;;;;;;5075261;28;20056;-61
2023/07/13 09:04:57;;;;;;;4.10;1.75;;;;;;;;;;5078977;28;20052;-61
2023/07/13 09:07:30;;;;;;;6.00;2.42;;;;;;;;;;5113677;28;20538;-61
2023/07/13 09:10:03;;;;;;;6.47;2.15;;;;;;;;;;5113787;28;20051;-61
2023/07/13 09:12:36;;;;;;;5.72;1.92;;;;;;;;;;5113355;28;20058;-59
2023/07/13 09:15:05;;;;;;;3.95;1.90;;;;;;;;;;5112723;28;20063;-60
2023/07/13 09:17:34;;;;;;;3.83;1.60;;;;;;;;;;5113664;28;20047;-59
2023/07/13 09:20:05;;;;;;;4.28;2.00;;;;;;;;;;5108023;28;20056;-59
2023/07/13 09:22:34;;;;;;;5.35;2.15;;;;;;;;;;5106135;28;20493;-59
2023/07/13 09:25:01;;;;;;;;;;;;;;;;;;5104615;28;20052;-59
2023/07/13 09:27:31;;;;;;;8.40;2.13;;;;;;;;;;5110136;28;20372;-59
2023/07/13 09:30:02;;;;;;;5.57;2.30;;;;;;;;;;5113238;28;20464;-59
2023/07/13 09:32:30;;;;;;;4.60;2.17;;;;;;;;;;5112945;28;20070;-59
2023/07/13 09:34:56;;;;;;;5.78;1.90;;;;;;;;;;5111683;28;20055;-60
2023/07/13 09:37:29;;;;;;;6.00;2.40;;;;;;;;;;5099351;28;20048;-60
2023/07/13 09:39:59;;;;;;;4.75;2.20;;;;;;;;;;5105305;28;20059;-59
2023/07/13 09:42:30;;;;;;;4.10;2.17;;;;;;;;;;5113020;28;20048;-60
2023/07/13 09:44:58;;;;;;;6.43;2.50;;;;;;;;;;5112937;28;20051;-59
2023/07/13 09:47:29;;;;;;;5.72;2.78;;;;;;;;;;5113411;28;20055;-60
2023/07/13 09:49:58;;;;;;;4.47;1.90;;;;;;;;;;5110615;28;20062;-60
2023/07/13 09:52:24;;;;;;;;;;;;;;;;;;5107751;28;20058;-59
2023/07/13 09:54:55;;;;;;;3.97;1.90;;;;;;;;;;5112651;28;19920;-60
2023/07/13 09:57:25;;;;;;;5.93;2.15;;;;;;;;;;5112854;28;20059;-60
2023/07/13 09:59:53;;;;;;;4.10;1.90;;;;;;;;;;5112987;28;20070;-59
2023/07/13 10:02:33;;;;;;;4.20;1.80;;;;;;;;;;5112860;28;20051;-59
2023/07/13 10:05:00;;;;;;;4.35;1.90;;;;;;;;;;5110665;28;20395;-60
2023/07/13 10:07:27;;;;;;;4.25;1.92;;;;;;;;;;5108858;28;20059;-60
2023/07/13 10:09:56;;;;;;;3.67;1.70;;;;;;;;;;5112844;28;20058;-60
2023/07/13 10:12:24;;;;;;;;;;;;;;;;;;5113294;28;20404;-60
2023/07/13 10:14:54;;;;;;;3.47;1.70;;;;;;;;;;5112831;28;20318;-59
2023/07/13 10:17:30;;;;;;;4.38;1.85;;;;;;;;;;5112633;28;20074;-60
2023/07/13 10:19:59;;;;;;;4.10;1.80;;;;;;;;;;5112746;28;20477;-60
2023/07/13 10:22:28;;;;;;;4.97;1.73;;;;;;;;;;5106189;28;20325;-60
2023/07/13 10:24:57;;;;;;;3.83;1.70;;;;;;;;;;5112266;28;20055;-60
2023/07/13 10:27:28;;;;;;;4.93;1.70;;;;;;;;;;5112257;28;20052;-60
2023/07/13 10:29:59;;;;;;;3.97;1.95;;;;;;;;;;5112812;28;20067;-60
2023/07/13 10:32:26;;;;;;;6.30;1.92;;;;;;;;;;5112200;28;20503;-59
2023/07/13 10:34:55;;;;;;;3.08;1.50;;;;;;;;;;5112567;28;20056;-59
2023/07/13 10:37:27;;;;;;;5.50;2.03;;;;;;;;;;5097794;28;20052;-59
2023/07/13 10:39:57;;;;;;;3.95;1.88;;;;;;;;;;5111268;28;20062;-59
2023/07/13 10:42:28;;;;;;;4.47;1.83;;;;;;;;;;5112750;28;20408;-59
2023/07/13 10:44:55;;;;;;;5.55;1.98;;;;;;;;;;5112326;28;20396;-60
2023/07/13 10:47:23;;;;;;;4.55;1.70;;;;;;;;;;5112224;28;20051;-60
2023/07/13 10:49:55;;;;;;;5.05;2.10;;;;;;;;;;5112816;28;20059;-60
2023/07/13 10:52:40;;;;;;;5.90;2.00;;;;;;;;;;5110890;28;20048;-60
2023/07/13 10:55:30;;;;;;;4.10;1.75;;;;;;;;;;5116099;28;20047;-59
2023/07/13 10:58:00;;;;;;;3.60;1.63;;;;;;;;;;5110080;28;20048;-60
2023/07/13 11:00:27;;;;;;;3.83;1.60;;;;;;;;;;5115836;28;20048;-59
2023/07/13 11:02:57;;;;;;;4.78;1.70;;;;;;;;;;5115752;28;20051;-59
2023/07/13 11:05:31;;;;;;;3.58;1.48;;;;;;;;;;5114886;28;20491;-60
2023/07/13 11:08:04;;;;;;;6.47;1.70;;;;;;;;;;5105519;28;20062;-59
2023/07/13 11:10:52;;;;;;;4.03;1.60;;;;;;;;;;5114827;28;20062;-59
2023/07/13 11:13:38;;;;;;;5.15;2.00;;;;;;;;;;5115967;28;20070;-60
2023/07/13 11:16:13;;;;;;;4.38;1.85;;;;;;;;;;5115866;28;20083;-59
2023/07/13 11:18:42;;;;;;;5.35;1.67;;;;;;;;;;5115736;28;20400;-60
2023/07/13 11:21:15;;;;;;;4.43;1.83;;;;;;;;;;5110112;28;20049;-59
2023/07/13 11:23:44;;;;;;;4.55;1.63;;;;;;;;;;5115795;28;20495;-59
2023/07/13 11:26:26;;;;;;;3.58;1.80;;;;;;;;;;5115970;28;20423;-59
2023/07/13 11:28:54;;;;;;;3.70;1.80;;;;;;;;;;5114571;28;20058;-59
2023/07/13 11:31:22;;;;;;;4.28;1.85;;;;;;;;;;5115569;28;20472;-59
2023/07/13 11:33:54;;;;;;;3.42;1.48;;;;;;;;;;5115288;28;20047;-60
2023/07/13 11:36:23;;;;;;;5.75;2.00;;;;;;;;;;5109133;28;20058;-59
2023/07/13 11:38:57;;;;;;;3.88;1.58;;;;;;;;;;5098586;28;20514;-59
2023/07/13 11:41:25;;;;;;;5.57;1.90;;;;;;;;;;5115546;28;20507;-60
2023/07/13 11:43:52;;;;;;;;;;;;;;;;;;5115971;28;20066;-59
2023/07/13 11:46:21;;;;;;;4.90;1.60;;;;;;;;;;5115338;28;19920;-59
2023/07/13 11:48:48;;;;;;;3.70;1.75;;;;;;;;;;5115243;28;20091;-59
2023/07/13 11:51:20;;;;;;;2.83;1.38;;;;;;;;;;5109607;28;20056;-59
2023/07/13 11:53:48;;;;;;;3.25;1.40;;;;;;;;;;5115082;28;20058;-60
2023/07/13 11:56:15;;;;;;;4.90;1.40;;;;;;;;;;5114832;28;20377;-60
2023/07/13 11:58:42;;;;;;;5.45;2.00;;;;;;;;;;5107385;28;20051;-59
2023/07/13 12:01:16;;;;;;;4.05;1.65;;;;;;;;;;5114193;28;20403;-60
2023/07/13 12:03:46;;;;;;;4.95;1.88;;;;;;;;;;5114664;28;20391;-59
2023/07/13 12:06:22;;;;;;;3.55;1.65;;;;;;;;;;5109403;28;20051;-59
2023/07/13 12:08:49;;;;;;;8.50;1.70;;;;;;;;;;5115211;28;20067;-61
2023/07/13 12:11:16;;;;;;;3.95;1.63;;;;;;;;;;5115083;28;20396;-60
2023/07/13 12:13:44;;;;;;;4.45;1.45;;;;;;;;;;5113884;28;20400;-60
2023/07/13 12:16:16;;;;;;;2.63;1.33;;;;;;;;;;5109555;28;20047;-60
2023/07/13 12:18:48;;;;;;;4.53;1.40;;;;;;;;;;5112301;28;20058;-60
2023/07/13 12:21:18;;;;;;;2.55;1.50;;;;;;;;;;5111583;28;20052;-60
2023/07/13 12:23:45;;;;;;;3.78;1.58;;;;;;;;;;5114589;28;20412;-60
2023/07/13 12:26:12;;;;;;;6.10;1.50;;;;;;;;;;5095249;28;20060;-60
2023/07/13 12:28:44;;;;;;;3.92;1.75;;;;;;;;;;5093867;28;20420;-60
2023/07/13 12:31:23;;;;;;;3.88;1.48;;;;;;;;;;5094037;28;20059;-59
2023/07/13 12:33:56;;;;;;;4.45;1.60;;;;;;;;;;5093458;28;20048;-60
2023/07/13 12:36:23;;;;;;;2.95;1.50;;;;;;;;;;5096335;28;20051;-60
2023/07/13 12:38:51;;;;;;;3.78;1.30;;;;;;;;;;5110990;28;20048;-60
2023/07/13 12:41:18;;;;;;;5.15;1.38;;;;;;;;;;5113338;28;20051;-60
2023/07/13 12:43:46;;;;;;;3.37;1.37;;;;;;;;;;5114476;28;20497;-60
2023/07/13 12:46:17;;;;;;;2.65;1.55;;;;;;;;;;5114301;28;20485;-60
2023/07/13 12:48:45;;;;;;;7.18;1.75;;;;;;;;;;5113967;28;20062;-59
2023/07/13 12:51:14;;;;;;;3.42;1.50;;;;;;;;;;5108655;28;20051;-59
2023/07/13 12:53:42;;;;;;;3.38;1.50;;;;;;;;;;5109310;28;20051;-60
2023/07/13 12:56:09;;;;;;;;;;;;;;;;;;5114465;28;20396;-60
2023/07/13 12:58:38;;;;;;;2.63;1.63;;;;;;;;;;5114028;28;19920;-60
2023/07/13 13:01:05;;;;;;;5.53;1.52;;;;;;;;;;5109901;28;20078;-60
2023/07/13 13:03:33;;;;;;;4.38;1.42;;;;;;;;;;5114026;28;20051;-59
2023/07/13 13:06:02;;;;;;;2.95;1.40;;;;;;;;;;5104445;28;20056;-60
2023/07/13 13:08:33;;;;;;;2.75;1.48;;;;;;;;;;5111628;28;20048;-59
2023/07/13 13:11:00;;;;;;;3.70;1.50;;;;;;;;;;5105739;28;20048;-60
2023/07/13 13:13:27;;;;;;;4.75;1.73;;;;;;;;;;5106698;28;20055;-59
2023/07/13 13:15:53;;;;;;;3.45;1.52;;;;;;;;;;5113631;28;20400;-59
2023/07/13 13:18:21;;;;;;;5.30;1.60;;;;;;;;;;5113431;28;20058;-59
2023/07/13 13:20:48;;;;;;;5.00;1.60;;;;;;;;;;5113511;28;20051;-60
2023/07/13 13:23:17;;;;;;;3.72;1.80;;;;;;;;;;5108401;28;20412;-59
2023/07/13 13:25:46;;;;;;;3.45;1.63;;;;;;;;;;5113426;28;20059;-60
2023/07/13 13:28:15;;;;;;;4.20;1.70;;;;;;;;;;5113320;28;20056;-59
2023/07/13 13:30:42;;;;;;;3.17;1.40;;;;;;;;;;5111902;28;20506;-59
2023/07/13 13:33:10;;;;;;;4.55;1.63;;;;;;;;;;5113408;28;20396;-59
2023/07/13 13:35:37;;;;;;;3.75;1.50;;;;;;;;;;5112991;28;20048;-60
2023/07/13 13:38:09;;;;;;;4.70;1.45;;;;;;;;;;5107393;28;20055;-59
2023/07/13 13:40:36;;;;;;;6.63;1.98;;;;;;;;;;5113124;28;20059;-59
2023/07/13 13:43:05;;;;;;;4.00;1.92;;;;;;;;;;5113077;28;20047;-60
2023/07/13 13:45:32;;;;;;;3.70;1.55;;;;;;;;;;5113230;28;20044;-60
2023/07/13 13:47:59;;;;;;;3.90;1.50;;;;;;;;;;5112478;28;20048;-60
2023/07/13 13:50:26;;;;;;;4.22;1.70;;;;;;;;;;5112757;28;20476;-60
2023/07/13 13:52:52;;;;;;;4.90;1.70;;;;;;;;;;5087854;28;20055;-59
2023/07/13 13:55:20;;;;;;;3.50;1.90;;;;;;;;;;5072372;28;20059;-59
2023/07/13 13:57:47;;;;;;;3.77;1.47;;;;;;;;;;5087027;28;20047;-60
2023/07/13 14:00:17;;;;;;;7.35;1.95;;;;;;;;;;5092524;28;20456;-59
2023/07/13 14:02:47;;;;;;;3.85;2.03;;;;;;;;;;5092197;28;20052;-60
2023/07/13 14:05:14;;;;;;;5.15;1.70;;;;;;;;;;5072263;28;20051;-57
2023/07/13 14:07:41;;;;;;;3.65;1.80;;;;;;;;;;5082908;28;20378;-59
2023/07/13 14:10:12;;;;;;;4.18;2.13;;;;;;;;;;5091937;28;20052;-57
2023/07/13 14:12:39;;;;;;;5.10;2.00;;;;;;;;;;5092289;28;20067;-58
2023/07/13 14:15:07;;;;;;;3.88;1.90;;;;;;;;;;5092118;28;20044;-58
2023/07/13 14:17:35;;;;;;;5.60;2.38;;;;;;;;;;5090982;28;20384;-58
2023/07/13 14:20:04;;;;;;;5.77;2.07;;;;;;;;;;5089019;28;20052;-58
2023/07/13 14:22:31;;;;;;;5.88;1.90;;;;;;;;;;5085647;28;20482;-58
2023/07/13 14:24:59;;;;;;;5.28;1.88;;;;;;;;;;5094508;28;20048;-58
2023/07/13 14:27:26;;;;;;;5.45;1.90;;;;;;;;;;5096344;28;20503;-59
2023/07/13 14:29:52;;;;;;;4.75;1.90;;;;;;;;;;5096372;28;20064;-59
2023/07/13 14:32:19;;;;;;;4.97;1.90;;;;;;;;;;5093854;28;20055;-58
2023/07/13 14:34:47;;;;;;;4.70;2.00;;;;;;;;;;5096057;28;20052;-58
2023/07/13 14:37:15;;;;;;;4.00;2.10;;;;;;;;;;5091532;28;20055;-58
2023/07/13 14:39:44;;;;;;;5.28;1.98;;;;;;;;;;5096032;28;20067;-58
2023/07/13 14:42:11;;;;;;;4.75;1.90;;;;;;;;;;5093677;28;20048;-59
2023/07/13 14:44:40;;;;;;;4.30;1.90;;;;;;;;;;5095928;28;20052;-58
2023/07/13 14:47:07;;;;;;;3.35;1.77;;;;;;;;;;5090688;28;20048;-59
2023/07/13 14:49:35;;;;;;;4.45;1.92;;;;;;;;;;5095738;28;20056;-59
2023/07/13 14:52:06;;;;;;;4.30;2.20;;;;;;;;;;5080086;28;20059;-58